Time;durP1;ratioP1;P1;durP2;ratioP2;P2;SDS_P1;SDS_P2;PMS_P1;PMS_P2;Temp;Humidity;BMP_temperature;BMP_pressure;BME280_temperature;BME280_humidity;BME280_pressure;Samples;Min_cycle;Max_cycle;Signal;HPM_P1;HPM_P2
2022/04/26 03:37:41;;;;;;;13.40;4.10;;;;;;;9.05;100.00;97160.59;5112498;28;20089;-79
2022/04/26 03:40:07;;;;;;;7.65;3.78;;;;;;;9.07;100.00;97155.16;5094274;28;20023;-80
2022/04/26 03:42:34;;;;;;;12.48;4.13;;;;;;;9.11;100.00;97168.19;5102945;28;20047;-81
2022/04/26 03:44:59;;;;;;;7.85;3.70;;;;;;;9.04;100.00;97164.22;5094400;28;20028;-79
2022/04/26 03:47:26;;;;;;;8.18;3.72;;;;;;;9.12;100.00;97177.06;5096150;28;20030;-88
2022/04/26 03:49:52;;;;;;;13.27;3.97;;;;;;;9.21;100.00;97164.03;5099520;28;20043;-87
2022/04/26 03:52:20;;;;;;;13.48;4.15;;;;;;;9.30;100.00;97167.06;5098720;28;20027;-87
2022/04/26 03:54:45;;;;;;;21.27;5.10;;;;;;;9.35;100.00;97168.47;5098626;28;20028;-88
2022/04/26 03:57:11;;;;;;;28.05;6.75;;;;;;;9.44;100.00;97167.06;5096406;28;20035;-88
2022/04/26 03:59:37;;;;;;;19.65;5.85;;;;;;;9.43;100.00;97154.66;5095729;28;20046;-89
2022/04/26 04:02:02;;;;;;;15.52;5.75;;;;;;;9.70;100.00;97182.25;5096454;28;20050;-89
2022/04/26 04:04:28;;;;;;;18.65;5.28;;;;;;;9.76;100.00;97171.19;5097057;28;20115;-88
2022/04/26 04:06:54;;;;;;;22.00;5.20;;;;;;;9.78;100.00;97178.13;5096781;28;20027;-90
2022/04/26 04:09:20;;;;;;;22.02;5.43;;;;;;;9.71;100.00;97170.63;5080469;28;20036;-89
2022/04/26 04:11:45;;;;;;;19.95;4.45;;;;;;;9.79;100.00;97190.53;5096485;28;20031;-88
2022/04/26 04:14:13;;;;;;;18.13;4.13;;;;;;;9.57;100.00;97160.81;5097051;28;20026;-89
2022/04/26 04:16:40;;;;;;;13.10;4.10;;;;;;;9.71;100.00;97178.63;5115493;28;20491;-88
2022/04/26 04:19:17;;;;;;;14.68;4.10;;;;;;;9.79;100.00;97182.53;5099173;28;20032;-88
2022/04/26 04:21:45;;;;;;;23.55;5.45;;;;;;;9.84;100.00;97189.38;5100807;28;20032;-86
2022/04/26 04:24:14;;;;;;;25.88;5.28;;;;;;;10.06;100.00;97187.03;5097194;28;20067;-88
2022/04/26 04:26:41;;;;;;;29.88;4.78;;;;;;;10.27;100.00;97205.19;5096552;28;20098;-89
2022/04/26 04:29:07;;;;;;;27.38;6.82;;;;;;;10.38;100.00;97192.94;5097017;28;20027;-88
2022/04/26 04:31:33;;;;;;;27.85;6.45;;;;;;;10.49;100.00;97206.47;5095921;28;20370;-88
2022/04/26 04:34:01;;;;;;;15.38;6.10;;;;;;;10.45;100.00;97213.81;5095461;28;20106;-88
2022/04/26 04:36:29;;;;;;;22.67;7.32;;;;;;;10.50;100.00;97213.50;5096197;28;20062;-89
2022/04/26 04:38:56;;;;;;;40.42;10.00;;;;;;;10.59;100.00;97219.09;5096610;28;20024;-89
2022/04/26 04:41:22;;;;;;;25.63;8.75;;;;;;;10.78;100.00;97205.34;5097479;28;20085;-88
2022/04/26 04:43:47;;;;;;;22.05;8.18;;;;;;;10.97;100.00;97211.16;5096444;28;20457;-89
2022/04/26 04:46:13;;;;;;;30.45;8.48;;;;;;;11.15;100.00;97219.72;5096410;28;20074;-89
2022/04/26 04:48:39;;;;;;;39.55;10.20;;;;;;;11.08;99.85;97195.19;5097386;28;20407;-87
2022/04/26 04:51:07;;;;;;;34.20;8.70;;;;;;;11.46;97.93;97210.38;5100388;28;20023;-90
2022/04/26 04:53:33;;;;;;;41.10;10.35;;;;;;;11.44;96.53;97197.94;5097543;28;20028;-89
2022/04/26 04:55:59;;;;;;;50.47;12.55;;;;;;;11.42;97.69;97223.13;5094599;28;20038;-88
2022/04/26 04:58:25;;;;;;;34.05;11.20;;;;;;;11.43;96.93;97208.78;5094708;28;20019;-85
2022/04/26 05:00:51;;;;;;;42.35;12.38;;;;;;;11.65;95.89;97208.13;5098411;28;20028;-88
2022/04/26 05:03:17;;;;;;;29.30;11.30;;;;;;;11.72;94.52;97226.34;5099092;28;20089;-87
2022/04/26 05:05:42;;;;;;;43.45;8.52;;;;;;;11.69;92.60;97204.25;5099201;28;20028;-87
2022/04/26 05:08:11;;;;;;;29.60;8.38;;;;;;;11.78;92.42;97203.63;5099809;28;20024;-87
2022/04/26 05:10:40;;;;;;;28.38;8.18;;;;;;;12.14;93.28;97238.47;5099672;28;20142;-89
2022/04/26 05:13:06;;;;;;;18.15;5.80;;;;;;;12.22;92.55;97235.22;5100200;28;20044;-88
2022/04/26 05:15:33;;;;;;;18.45;5.22;;;;;;;12.26;90.50;97244.75;5099440;28;20051;-89
2022/04/26 05:17:58;;;;;;;18.15;6.05;;;;;;;12.70;87.81;97226.22;5116764;28;20032;-89
2022/04/26 05:20:24;;;;;;;29.27;6.75;;;;;;;13.14;84.57;97221.97;5098860;28;20483;-89
2022/04/26 05:25:34;;;;;;;14.73;5.38;;;;;;;14.60;75.95;97252.28;5117304;28;20468;-90
2022/04/26 05:28:03;;;;;;;14.20;5.82;;;;;;;15.91;70.00;97221.16;5100522;28;20348;-88
2022/04/26 05:30:29;;;;;;;21.38;6.28;;;;;;;17.86;61.01;97227.25;5100120;28;20023;-85
2022/04/26 05:32:55;;;;;;;18.98;5.43;;;;;;;18.26;58.07;97223.38;5100447;28;20019;-89
2022/04/26 05:35:22;;;;;;;14.32;5.55;;;;;;;19.65;54.22;97224.63;5100770;28;20114;-88
2022/04/26 05:37:48;;;;;;;11.18;4.78;;;;;;;20.14;51.88;97225.78;5100738;28;20027;-88
2022/04/26 05:40:14;;;;;;;7.60;4.50;;;;;;;21.49;48.39;97215.44;5102633;28;20092;-90
2022/04/26 05:42:40;;;;;;;11.82;4.53;;;;;;;22.62;44.86;97189.78;5100866;28;20251;-88
2022/04/26 05:45:06;;;;;;;13.20;3.90;;;;;;;22.91;43.83;97191.84;5099870;28;20110;-89
2022/04/26 05:47:32;;;;;;;24.15;5.07;;;;;;;24.52;41.26;97206.75;5100143;28;20141;-87
2022/04/26 05:49:57;;;;;;;17.15;4.72;;;;;;;25.39;39.59;97182.91;5099252;28;20047;-88
2022/04/26 05:52:26;;;;;;;18.27;5.40;;;;;;;25.77;38.28;97197.19;5099556;28;20068;-88
2022/04/26 05:54:52;;;;;;;14.40;4.28;;;;;;;23.07;42.52;97208.94;5099642;28;20453;-88
2022/04/26 05:57:18;;;;;;;16.75;4.57;;;;;;;20.94;47.15;97234.25;5097896;28;20110;-88
2022/04/26 05:59:44;;;;;;;12.25;4.45;;;;;;;20.40;49.37;97241.03;5098334;28;20480;-88
2022/04/26 06:02:10;;;;;;;15.93;4.53;;;;;;;19.73;50.56;97239.09;5098801;28;20421;-88
2022/04/26 06:04:38;;;;;;;12.50;5.03;;;;;;;19.51;51.50;97233.31;5098819;28;20020;-87
2022/04/26 06:07:04;;;;;;;15.20;5.50;;;;;;;18.46;55.14;97243.09;5099578;28;20451;-88
2022/04/26 06:09:29;;;;;;;19.20;5.78;;;;;;;17.60;57.82;97225.34;5099548;28;20028;-89
2022/04/26 06:11:55;;;;;;;7.80;5.32;;;;;;;18.16;56.49;97241.53;5098792;28;20104;-89
2022/04/26 06:14:21;;;;;;;17.05;5.35;;;;;;;18.24;57.44;97244.34;5098164;28;20131;-88
2022/04/26 06:16:47;;;;;;;13.05;5.10;;;;;;;18.13;57.50;97236.41;5098418;28;20034;-89
2022/04/26 06:19:12;;;;;;;10.82;5.60;;;;;;;17.95;58.18;97241.75;5097402;28;20027;-87
2022/04/26 06:21:38;;;;;;;13.65;5.88;;;;;;;18.24;57.57;97225.41;5114632;28;20123;-87
2022/04/26 06:24:04;;;;;;;9.35;5.05;;;;;;;18.76;55.68;97227.41;5098058;28;20028;-88
2022/04/26 06:26:29;;;;;;;20.35;5.68;;;;;;;20.99;49.52;97204.69;5097132;28;20034;-88
2022/04/26 06:28:56;;;;;;;11.20;4.80;;;;;;;20.83;48.40;97191.03;5097602;28;20071;-89
2022/04/26 06:31:21;;;;;;;11.90;4.53;;;;;;;21.44;48.28;97197.94;5098101;28;20067;-89
2022/04/26 06:33:47;;;;;;;18.13;4.55;;;;;;;23.93;43.39;97186.75;5115670;28;20028;-89
2022/04/26 06:36:12;;;;;;;14.02;4.50;;;;;;;24.73;40.99;97189.56;5114962;28;20035;-90
2022/04/26 06:38:38;;;;;;;17.15;4.57;;;;;;;24.70;40.88;97198.97;5097812;28;20023;-87
2022/04/26 06:41:04;;;;;;;17.33;5.00;;;;;;;24.75;40.34;97184.72;5098095;28;20082;-89
2022/04/26 06:43:32;;;;;;;8.77;4.45;;;;;;;23.97;41.69;97185.31;5114792;28;20526;-90
2022/04/26 06:45:58;;;;;;;22.00;4.35;;;;;;;25.16;38.97;97190.50;5098608;28;20130;-89
2022/04/26 06:48:24;;;;;;;9.93;4.10;;;;;;;23.70;41.31;97172.28;5097370;28;20467;-89
2022/04/26 06:50:50;;;;;;;11.68;4.18;;;;;;;23.31;42.00;97201.63;5097576;28;20128;-89
2022/04/26 06:53:15;;;;;;;19.83;4.70;;;;;;;23.51;42.63;97194.66;5098837;28;20059;-88
2022/04/26 06:55:41;;;;;;;50.75;7.13;;;;;;;25.15;40.41;97191.53;5097515;28;20031;-88
2022/04/26 06:58:07;;;;;;;22.35;4.85;;;;;;;25.15;39.55;97175.09;5097749;28;20034;-90
2022/04/26 07:00:33;;;;;;;24.60;4.10;;;;;;;26.36;37.28;97176.53;5097929;28;20036;-87
2022/04/26 07:02:59;;;;;;;14.50;4.10;;;;;;;26.79;36.45;97177.16;5097440;28;20032;-87
2022/04/26 07:05:25;;;;;;;24.80;4.30;;;;;;;26.98;35.83;97170.06;5098112;28;20114;-87
2022/04/26 07:07:52;;;;;;;11.00;3.80;;;;;;;26.99;35.73;97141.56;5098272;28;20487;-87
2022/04/26 07:10:18;;;;;;;11.27;4.18;;;;;;;28.49;33.40;97151.69;5097584;28;20567;-87
2022/04/26 07:12:43;;;;;;;9.63;4.28;;;;;;;29.21;32.49;97150.53;5097926;28;20041;-88
2022/04/26 07:15:09;;;;;;;21.00;4.43;;;;;;;30.59;30.75;97152.94;5097519;28;20114;-88
2022/04/26 07:17:40;;;;;;;13.35;4.93;;;;;;;31.02;30.12;97141.78;5097292;28;20027;-88
2022/04/26 07:20:06;;;;;;;14.77;6.53;;;;;;;31.27;30.15;97151.88;5114348;28;20036;-88
2022/04/26 07:22:32;;;;;;;14.60;6.25;;;;;;;29.80;31.14;97152.00;5097378;28;20023;-88
2022/04/26 07:24:58;;;;;;;16.95;6.15;;;;;;;28.81;32.59;97162.81;5096282;28;20551;-88
2022/04/26 07:27:23;;;;;;;23.67;5.63;;;;;;;30.07;31.18;97170.91;5097611;28;20023;-88
2022/04/26 07:29:50;;;;;;;14.52;5.47;;;;;;;31.40;29.11;97154.44;5114392;28;20023;-88
2022/04/26 07:32:15;;;;;;;8.27;4.10;;;;;;;31.26;28.91;97147.41;5097490;28;20483;-88
2022/04/26 07:34:41;;;;;;;9.35;4.75;;;;;;;31.10;29.27;97146.16;5096835;28;20035;-88
2022/04/26 07:37:07;;;;;;;10.43;4.13;;;;;;;31.86;28.22;97137.13;5113459;28;20098;-88
2022/04/26 07:39:34;;;;;;;6.22;3.47;;;;;;;32.88;26.88;97146.72;5097340;28;20031;-89
2022/04/26 07:42:01;;;;;;;5.90;3.00;;;;;;;33.08;26.54;97145.22;5096937;28;20019;-85
2022/04/26 07:44:27;;;;;;;30.02;5.80;;;;;;;31.85;28.42;97152.88;5095956;28;20027;-85
2022/04/26 07:46:54;;;;;;;18.08;5.70;;;;;;;32.94;27.10;97156.81;5095788;28;20100;-86
2022/04/26 07:49:21;;;;;;;12.35;2.70;;;;;;;33.33;26.38;97142.09;5095750;28;20030;-86
2022/04/26 07:51:47;;;;;;;10.38;3.05;;;;;;;34.48;25.35;97153.53;5095149;28;20715;-85
2022/04/26 07:54:15;;;;;;;9.13;2.20;;;;;;;34.12;25.33;97131.84;5095008;28;20080;-84
2022/04/26 07:56:41;;;;;;;10.95;3.85;;;;;;;34.59;25.04;97140.59;5111735;28;20028;-85
2022/04/26 07:59:07;;;;;;;6.30;2.40;;;;;;;35.17;23.70;97134.44;5112185;28;20459;-85
2022/04/26 08:01:32;;;;;;;7.07;1.77;;;;;;;34.29;24.10;97130.75;5112221;28;20034;-84
2022/04/26 08:03:59;;;;;;;6.40;2.58;;;;;;;35.31;24.06;97125.44;5095321;28;20023;-85
2022/04/26 08:06:25;;;;;;;16.88;3.55;;;;;;;35.60;23.75;97142.72;5095541;28;20116;-85
2022/04/26 08:08:50;;;;;;;3.58;1.50;;;;;;;35.52;22.99;97129.28;5094110;28;20043;-85
2022/04/26 08:11:17;;;;;;;5.55;1.85;;;;;;;35.37;22.70;97123.56;5093882;28;20127;-84
2022/04/26 08:13:43;;;;;;;8.18;2.10;;;;;;;35.46;23.28;97121.97;5095055;28;20118;-84
2022/04/26 08:16:10;;;;;;;19.85;3.50;;;;;;;36.15;22.39;97122.06;5094464;28;20019;-84
2022/04/26 08:18:36;;;;;;;13.80;1.80;;;;;;;35.88;22.28;97120.16;5093978;28;20023;-84
2022/04/26 08:21:02;;;;;;;6.05;1.80;;;;;;;36.27;21.60;97111.56;5093861;28;20032;-85
2022/04/26 08:23:28;;;;;;;10.23;2.00;;;;;;;36.71;21.60;97126.91;5094409;28;20027;-85
2022/04/26 08:28:38;;;;;;;4.55;1.30;;;;;;;34.93;22.47;97110.78;5111833;28;20442;-83
2022/04/26 08:31:05;;;;;;;5.78;1.42;;;;;;;35.66;21.23;97096.28;5095125;28;20032;-84
2022/04/26 08:33:34;;;;;;;10.07;3.08;;;;;;;33.83;22.75;97099.72;5111892;28;20024;-86
2022/04/26 08:36:00;;;;;;;2.08;1.08;;;;;;;33.98;22.68;97091.63;5090161;28;20478;-84
2022/04/26 08:38:25;;;;;;;3.15;0.98;;;;;;;34.09;22.74;97108.19;5098684;28;20085;-84
2022/04/26 08:40:51;;;;;;;13.07;1.80;;;;;;;35.01;22.66;97113.13;5116004;28;20035;-85
2022/04/26 08:43:17;;;;;;;7.55;1.30;;;;;;;34.66;22.60;97100.44;5099042;28;20542;-85
2022/04/26 08:45:45;;;;;;;12.15;1.58;;;;;;;35.17;22.24;97098.28;5115652;28;20034;-85
2022/04/26 08:51:04;;;;;;;10.70;2.97;;;;;;;35.63;21.59;97080.09;5115751;28;20437;-85
2022/04/26 08:53:34;;;;;;;5.78;1.48;;;;;;;36.10;20.59;97100.59;5099622;28;20043;-85
2022/04/26 08:56:03;;;;;;;4.55;1.20;;;;;;;37.12;20.22;97097.25;5098088;28;20039;-84
2022/04/26 08:58:31;;;;;;;4.03;1.05;;;;;;;36.16;20.32;97085.56;5098781;28;20015;-85
2022/04/26 09:01:08;;;;;;;1.33;1.00;;;;;;;36.26;20.77;97104.31;5098686;28;20477;-84
2022/04/26 09:03:56;;;;;;;6.03;1.33;;;;;;;36.90;20.56;97091.84;5098421;28;20571;-85
2022/04/26 09:06:33;;;;;;;9.88;1.33;;;;;;;37.16;20.05;97075.22;5115629;28;20019;-85
2022/04/26 09:09:18;;;;;;;2.05;1.10;;;;;;;33.94;21.75;97079.34;5115195;28;20541;-85
2022/04/26 09:11:44;;;;;;;5.38;1.48;;;;;;;35.57;21.12;97082.00;5114745;28;20035;-85
2022/04/26 09:14:34;;;;;;;8.65;1.00;;;;;;;36.07;20.72;97100.28;5097978;28;20028;-83
2022/04/26 09:17:09;;;;;;;1.63;0.80;;;;;;;36.70;20.02;97072.22;5097740;28;20115;-84
2022/04/26 09:19:56;;;;;;;4.22;2.17;;;;;;;36.64;20.33;97092.84;5115342;28;20023;-84
2022/04/26 09:22:25;;;;;;;4.32;1.70;;;;;;;37.66;20.02;97099.59;5092348;28;20084;-84
2022/04/26 09:25:05;;;;;;;1.02;0.93;;;;;;;36.68;19.79;97085.63;5098592;28;20462;-84
2022/04/26 09:27:35;;;;;;;3.30;1.30;;;;;;;36.49;20.10;97073.22;5098647;28;20067;-84
2022/04/26 09:30:10;;;;;;;4.57;1.30;;;;;;;36.19;19.88;97081.41;5097962;28;20548;-84
2022/04/26 09:32:49;;;;;;;6.75;1.48;;;;;;;35.68;20.40;97052.34;5097559;28;20024;-84
2022/04/26 09:35:29;;;;;;;5.22;2.00;;;;;;;36.36;20.01;97074.53;5115060;28;20419;-84
2022/04/26 09:37:55;;;;;;;5.43;1.05;;;;;;;36.10;20.55;97083.88;5097525;28;20100;-85
2022/04/26 09:40:20;;;;;;;3.42;1.50;;;;;;;36.37;20.37;97072.59;5096920;28;20035;-84
2022/04/26 09:42:50;;;;;;;4.05;1.20;;;;;;;36.98;19.59;97045.81;5097748;28;20027;-84
2022/04/26 09:45:16;;;;;;;2.97;1.40;;;;;;;37.36;19.88;97072.44;5114509;28;20569;-84
2022/04/26 09:47:43;;;;;;;8.00;1.88;;;;;;;37.70;19.25;97056.88;5095708;28;20027;-85
2022/04/26 09:50:14;;;;;;;4.65;1.17;;;;;;;38.28;18.99;97065.75;5096512;28;20024;-84
2022/04/26 09:52:40;;;;;;;2.42;1.30;;;;;;;37.96;18.81;97066.13;5113922;28;20107;-84
2022/04/26 09:55:08;;;;;;;12.77;1.48;;;;;;;37.57;19.25;97049.03;5096987;28;20499;-84
2022/04/26 09:57:35;;;;;;;5.40;1.88;;;;;;;38.22;19.16;97069.69;5097018;28;20027;-83
2022/04/26 10:00:05;;;;;;;3.35;1.45;;;;;;;37.67;18.51;97040.69;5097451;28;20104;-83
2022/04/26 10:02:32;;;;;;;7.13;1.35;;;;;;;37.50;18.93;97045.72;5114647;28;20019;-84
2022/04/26 10:05:06;;;;;;;2.40;1.30;;;;;;;36.65;20.35;97052.69;5097248;28;20038;-84
2022/04/26 10:07:35;;;;;;;7.97;1.70;;;;;;;36.81;19.85;97029.34;5097403;28;20457;-83
2022/04/26 10:10:06;;;;;;;7.70;1.10;;;;;;;36.48;20.22;97051.19;5097146;28;20082;-84
2022/04/26 10:12:32;;;;;;;2.00;1.10;;;;;;;34.04;21.60;97023.97;5098148;28;20095;-83
2022/04/26 10:14:59;;;;;;;2.22;0.93;;;;;;;36.03;20.67;97037.81;5097463;28;20031;-84
2022/04/26 10:17:25;;;;;;;2.92;0.93;;;;;;;36.68;19.87;97029.84;5097993;28;20023;-83
2022/04/26 10:19:52;;;;;;;6.57;1.10;;;;;;;36.11;20.75;97046.56;5096693;28;20514;-84
2022/04/26 10:22:58;;;;;;;8.93;1.23;;;;;;;36.57;20.52;97044.88;5113882;28;20114;-83
2022/04/26 10:25:26;;;;;;;1.85;1.33;;;;;;;37.58;19.51;97039.56;5116682;28;20040;-84
2022/04/26 10:28:16;;;;;;;4.20;1.00;;;;;;;38.14;19.18;97059.94;5096888;28;20131;-83
2022/04/26 10:30:56;;;;;;;3.95;1.30;;;;;;;37.49;19.71;97027.28;5113528;28;20024;-84
2022/04/26 10:33:36;;;;;;;7.55;1.80;;;;;;;38.64;19.20;97042.19;5096987;28;20042;-84
2022/04/26 10:36:20;;;;;;;10.23;1.55;;;;;;;39.91;18.00;97042.25;5096523;28;20031;-83
2022/04/26 10:39:09;;;;;;;6.82;1.17;;;;;;;40.02;17.76;97044.66;5113311;28;20111;-84
2022/04/26 10:41:43;;;;;;;2.92;1.38;;;;;;;39.60;18.12;97030.44;5100250;28;20523;-84
2022/04/26 10:44:17;;;;;;;7.57;2.13;;;;;;;38.69;18.71;97042.19;5096189;28;20039;-84
2022/04/26 10:46:50;;;;;;;6.22;2.30;;;;;;;40.02;17.74;97030.66;5113838;28;20055;-84
2022/04/26 10:49:25;;;;;;;4.57;1.20;;;;;;;39.91;17.72;97028.25;5096971;28;20032;-85
2022/04/26 10:51:51;;;;;;;8.20;1.20;;;;;;;38.29;18.98;97022.72;5113319;28;20058;-84
2022/04/26 10:54:45;;;;;;;4.80;1.50;;;;;;;38.78;18.32;97032.06;5095824;28;20053;-84
2022/04/26 10:57:17;;;;;;;7.97;2.85;;;;;;;37.89;19.43;97023.63;5112635;28;20031;-84
2022/04/26 10:59:47;;;;;;;6.25;1.60;;;;;;;38.06;18.61;97023.31;5113228;28;20379;-84
2022/04/26 11:02:17;;;;;;;4.40;1.70;;;;;;;39.55;17.37;97002.50;5095830;28;20053;-84
2022/04/26 11:04:43;;;;;;;2.70;1.15;;;;;;;39.53;17.19;97022.38;5097129;28;20045;-84
2022/04/26 11:07:12;;;;;;;4.95;1.20;;;;;;;39.43;17.76;97016.03;5095947;28;20058;-85
2022/04/26 11:09:53;;;;;;;9.27;2.50;;;;;;;39.83;17.59;97015.72;5095579;28;20027;-84
2022/04/26 11:12:25;;;;;;;17.23;3.55;;;;;;;40.51;17.51;97021.19;5093961;28;20092;-77
2022/04/26 11:14:56;;;;;;;3.17;1.48;;;;;;;41.25;16.86;97026.13;5109423;28;20036;-77
2022/04/26 11:17:22;;;;;;;4.22;1.50;;;;;;;40.22;16.75;97017.59;5092528;28;20027;-75
2022/04/26 11:20:14;;;;;;;3.85;1.92;;;;;;;40.89;16.75;97017.34;5093518;28;20039;-75
2022/04/26 11:27:59;;;;;;;4.30;1.13;;;;;;;41.79;15.88;97014.34;5105713;28;20035;-76
2022/04/26 11:28:28;;;;;;;3.35;1.65;;;;;;;39.13;17.95;97011.47;5108704;28;20030;-75
2022/04/26 11:30:56;;;;;;;12.57;2.15;;;;;;;38.83;18.74;96992.88;5108456;28;20031;-75
2022/04/26 11:33:23;;;;;;;10.60;2.03;;;;;;;38.14;19.75;97006.00;5108015;28;20073;-75
2022/04/26 11:35:52;;;;;;;2.58;1.10;;;;;;;37.01;19.95;97005.44;5091101;28;20039;-75
2022/04/26 11:38:18;;;;;;;6.05;1.50;;;;;;;34.39;22.46;97015.31;5108374;28;20080;-74
2022/04/26 11:40:49;;;;;;;13.23;2.65;;;;;;;32.05;25.59;97009.47;5092181;28;20088;-74
2022/04/26 11:43:17;;;;;;;10.73;2.38;;;;;;;31.17;26.36;97019.75;5091232;28;20056;-73
2022/04/26 11:45:45;;;;;;;3.05;1.63;;;;;;;29.15;28.50;97023.81;5108609;28;20489;-74
2022/04/26 11:48:13;;;;;;;5.70;1.48;;;;;;;29.22;29.23;97025.47;5091973;28;20027;-74
2022/04/26 11:50:40;;;;;;;34.13;2.83;;;;;;;29.45;28.36;97025.69;5091506;28;20100;-74
2022/04/26 11:53:08;;;;;;;8.40;2.20;;;;;;;28.64;29.03;97032.22;5109503;28;20027;-74
2022/04/26 11:55:38;;;;;;;5.47;1.40;;;;;;;27.93;30.29;97026.78;5108423;28;20034;-74
2022/04/26 11:58:18;;;;;;;5.13;1.65;;;;;;;28.05;30.79;97040.72;5091492;28;20123;-74
2022/04/26 12:01:02;;;;;;;12.93;1.45;;;;;;;27.88;31.27;97040.31;5108542;28;20107;-73
2022/04/26 12:03:51;;;;;;;6.28;1.30;;;;;;;27.63;32.62;97045.66;5108443;28;20023;-73
2022/04/26 12:06:26;;;;;;;7.47;1.40;;;;;;;27.01;32.32;97035.09;5092490;28;20027;-74
2022/04/26 12:08:58;;;;;;;10.18;1.15;;;;;;;26.84;33.02;97031.06;5083922;28;20027;-74
2022/04/26 12:11:29;;;;;;;13.50;1.33;;;;;;;29.02;30.47;97046.78;5091029;28;20609;-74
2022/04/26 12:14:06;;;;;;;10.02;1.63;;;;;;;29.55;29.39;97045.34;5109654;28;20152;-74
2022/04/26 12:16:35;;;;;;;4.97;1.50;;;;;;;28.37;30.50;97024.06;5109574;28;20478;-74
2022/04/26 12:19:05;;;;;;;4.45;1.40;;;;;;;27.72;31.76;97044.38;5108108;28;20511;-73
2022/04/26 12:21:52;;;;;;;8.70;1.60;;;;;;;27.38;32.25;97039.09;5108273;28;20023;-74
2022/04/26 12:24:22;;;;;;;6.05;1.42;;;;;;;26.96;33.22;97032.16;5086946;28;20074;-73
2022/04/26 12:27:04;;;;;;;3.20;1.42;;;;;;;26.56;33.75;97039.44;5108007;28;20024;-73
2022/04/26 12:29:51;;;;;;;4.03;1.20;;;;;;;26.21;33.76;97024.97;5107676;28;20038;-73
2022/04/26 12:32:18;;;;;;;5.78;1.70;;;;;;;26.02;33.71;97020.25;5091503;28;20027;-73
2022/04/26 12:34:50;;;;;;;7.45;1.63;;;;;;;25.66;34.37;97008.66;5107814;28;20078;-73
2022/04/26 12:37:25;;;;;;;6.82;1.52;;;;;;;25.43;34.91;97014.41;5107569;28;20061;-74
2022/04/26 12:39:53;;;;;;;18.92;2.40;;;;;;;24.99;35.64;97025.66;5107778;28;20036;-73
2022/04/26 12:42:28;;;;;;;9.23;2.08;;;;;;;24.83;36.81;97023.19;5108002;28;20035;-74
2022/04/26 12:45:06;;;;;;;10.45;1.50;;;;;;;24.42;37.58;97017.50;5107546;28;20063;-74
2022/04/26 12:50:29;;;;;;;6.57;1.67;;;;;;;23.99;38.04;97032.97;5108126;28;20426;-74
2022/04/26 12:53:00;;;;;;;14.27;1.90;;;;;;;23.75;38.53;97035.97;5108205;28;20043;-72
2022/04/26 12:55:34;;;;;;;13.32;2.33;;;;;;;23.66;38.85;97042.59;5091298;28;20034;-73
2022/04/26 12:58:04;;;;;;;12.20;2.10;;;;;;;23.42;39.97;97040.97;5107405;28;20498;-73
2022/04/26 13:00:32;;;;;;;14.18;1.60;;;;;;;23.42;39.23;97051.06;5109026;28;20023;-74
2022/04/26 13:03:04;;;;;;;7.53;1.90;;;;;;;23.22;40.09;97058.91;5099513;28;20035;-74
2022/04/26 13:05:47;;;;;;;6.13;1.00;;;;;;;22.92;39.55;97060.72;5091027;28;20130;-74
2022/04/26 13:08:14;;;;;;;7.13;1.23;;;;;;;22.55;41.11;97082.44;5084893;28;20403;-74
2022/04/26 13:10:41;;;;;;;3.75;2.22;;;;;;;22.19;44.26;97131.22;5089869;28;20054;-75
2022/04/26 13:13:06;;;;;;;6.55;1.98;;;;;;;20.40;54.83;97150.50;5089991;28;20024;-74
2022/04/26 13:15:33;;;;;;;9.80;1.90;;;;;;;18.59;64.86;97162.31;5107057;28;20080;-74
2022/04/26 13:17:59;;;;;;;6.45;1.80;;;;;;;17.20;75.11;97142.56;5108043;28;20024;-73
2022/04/26 13:20:26;;;;;;;0.20;0.20;;;;;;;16.08;94.10;97149.53;5108020;28;20028;-74
2022/04/26 13:22:52;;;;;;;2.72;0.90;;;;;;;15.13;100.00;97158.88;5093097;28;20043;-73
2022/04/26 13:25:17;;;;;;;0.50;0.50;;;;;;;14.58;100.00;97178.88;5110356;28;20019;-74
2022/04/26 13:27:45;;;;;;;2.85;1.33;;;;;;;14.41;100.00;97171.34;5110243;28;20027;-75
2022/04/26 13:30:11;;;;;;;1.10;0.88;;;;;;;14.34;100.00;97171.00;5110334;28;20023;-74
2022/04/26 13:32:37;;;;;;;1.08;0.63;;;;;;;14.35;100.00;97179.94;5110233;28;20033;-74
2022/04/26 13:35:05;;;;;;;0.98;0.85;;;;;;;14.19;100.00;97169.53;5109930;28;20084;-73
2022/04/26 13:37:31;;;;;;;0.52;0.30;;;;;;;14.16;100.00;97177.88;5093024;28;20084;-74
2022/04/26 13:39:58;;;;;;;0.80;0.70;;;;;;;14.36;100.00;97182.50;5109960;28;20140;-73
2022/04/26 13:42:25;;;;;;;4.70;0.63;;;;;;;14.60;100.00;97174.22;5110457;28;20452;-73
2022/04/26 13:44:54;;;;;;;0.57;0.50;;;;;;;14.70;100.00;97158.16;5109819;28;20027;-73
2022/04/26 13:47:20;;;;;;;1.40;0.93;;;;;;;14.91;100.00;97172.47;5103561;28;20111;-73
2022/04/26 13:49:46;;;;;;;0.13;0.13;;;;;;;14.96;100.00;97156.75;5109652;28;20032;-74
2022/04/26 13:52:15;;;;;;;1.50;0.95;;;;;;;15.17;100.00;97166.53;5092550;28;20042;-73
2022/04/26 13:54:42;;;;;;;0.32;0.32;;;;;;;15.26;100.00;97164.06;5110086;28;20035;-73
2022/04/26 13:57:08;;;;;;;0.17;0.10;;;;;;;15.49;100.00;97171.00;5109415;28;20058;-73
2022/04/26 13:59:34;;;;;;;1.33;1.23;;;;;;;15.75;100.00;97171.44;5109802;28;20127;-73
2022/04/26 14:02:00;;;;;;;0.32;0.32;;;;;;;15.95;100.00;97152.47;5109277;28;20035;-73
2022/04/26 14:04:26;;;;;;;1.52;1.10;;;;;;;16.13;100.00;97152.63;5109841;28;20476;-73
2022/04/26 14:06:52;;;;;;;1.98;1.38;;;;;;;16.40;100.00;97157.34;5092708;28;20066;-73
2022/04/26 14:09:18;;;;;;;3.40;1.58;;;;;;;16.60;100.00;97148.34;5109625;28;20080;-73
2022/04/26 14:11:46;;;;;;;1.63;1.48;;;;;;;16.74;100.00;97139.78;5109511;28;20052;-73
2022/04/26 14:22:30;;;;;;;0.32;0.32;;;;;;;15.97;100.00;97161.25;5111173;28;20031;-82
2022/04/26 14:24:58;;;;;;;0.85;0.55;;;;;;;15.64;100.00;97154.34;5094071;28;20034;-82
2022/04/26 14:27:24;;;;;;;0.63;0.35;;;;;;;15.73;100.00;97185.03;5110506;28;20088;-82
2022/04/26 14:29:50;;;;;;;0.82;0.47;;;;;;;15.59;100.00;97169.22;5093250;28;20555;-83
2022/04/26 14:32:15;;;;;;;5.05;0.55;;;;;;;15.41;100.00;97168.13;5092479;28;20058;-82
2022/04/26 14:34:42;;;;;;;0.43;0.40;;;;;;;15.42;100.00;97167.97;5092997;28;20130;-82
2022/04/26 14:37:09;;;;;;;0.28;0.20;;;;;;;15.32;100.00;97129.31;5092878;28;20032;-83
2022/04/26 14:39:36;;;;;;;6.22;3.10;;;;;;;15.54;100.00;97166.91;5111196;28;20043;-83
2022/04/26 14:42:02;;;;;;;3.05;1.75;;;;;;;15.41;100.00;97138.47;5111169;28;20031;-82
2022/04/26 14:44:28;;;;;;;0.88;0.63;;;;;;;15.70;100.00;97159.19;5110498;28;20541;-82
2022/04/26 14:46:54;;;;;;;2.95;1.27;;;;;;;15.70;100.00;97137.63;5110158;28;20118;-82
2022/04/26 14:49:19;;;;;;;0.20;0.20;;;;;;;15.71;100.00;97138.47;5093236;28;20455;-82
2022/04/26 14:51:45;;;;;;;2.15;1.15;;;;;;;15.62;100.00;97125.81;5093347;28;20038;-82
2022/04/26 14:54:12;;;;;;;1.98;1.00;;;;;;;15.85;100.00;97156.97;5110783;28;20049;-81
2022/04/26 14:56:38;;;;;;;0.55;0.50;;;;;;;15.81;100.00;97149.31;5092800;28;20040;-82
2022/04/26 14:59:06;;;;;;;0.70;0.47;;;;;;;15.96;100.00;97147.94;5109222;28;20095;-82
2022/04/26 15:01:32;;;;;;;5.78;0.95;;;;;;;16.08;100.00;97154.91;5109135;28;20024;-82
2022/04/26 15:03:57;;;;;;;0.32;0.32;;;;;;;16.14;100.00;97146.25;5093247;28;20497;-82
2022/04/26 15:06:23;;;;;;;0.63;0.50;;;;;;;16.18;100.00;97136.91;5092770;28;20031;-82
2022/04/26 15:11:32;;;;;;;0.60;0.60;;;;;;;16.54;100.00;97198.38;5108061;28;20050;-74
2022/04/26 15:16:46;;;;;;;0.52;0.52;;;;;;;16.48;100.00;97201.59;5111647;28;20038;-74
2022/04/26 15:19:12;;;;;;;3.47;0.50;;;;;;;16.30;100.00;97214.06;5111121;28;20024;-74
2022/04/26 15:21:39;;;;;;;0.85;0.77;;;;;;;16.15;100.00;97220.84;5110864;28;20030;-75
2022/04/26 15:24:19;;;;;;;0.73;0.55;;;;;;;16.10;100.00;97241.97;5094009;28;20398;-81
2022/04/26 15:26:45;;;;;;;0.52;0.38;;;;;;;16.06;100.00;97264.81;5110881;28;20376;-75
2022/04/26 15:29:11;;;;;;;1.00;0.68;;;;;;;16.04;100.00;97259.56;5094037;28;20064;-74
2022/04/26 15:31:37;;;;;;;5.30;1.85;;;;;;;15.92;100.00;97273.28;5110761;28;20034;-75
2022/04/26 15:34:05;;;;;;;2.60;0.93;;;;;;;15.89;100.00;97265.44;5110687;28;20045;-74
2022/04/26 15:36:38;;;;;;;0.77;0.40;;;;;;;15.83;100.00;97241.72;5110965;28;20091;-76
2022/04/26 15:39:03;;;;;;;0.60;0.60;;;;;;;15.71;100.00;97239.13;5110846;28;20026;-74